createdAt,value
2019-04-27T00:01:14.716Z,12.10
2019-04-27T00:02:49.383Z,12.00
2019-04-27T00:04:25.366Z,12.70
2019-04-27T00:05:46.658Z,13.10
2019-04-27T00:10:28.562Z,11.70
2019-04-27T00:11:53.674Z,11.30
2019-04-27T00:13:10.298Z,11.80
2019-04-27T00:14:26.291Z,11.40
2019-04-27T00:17:48.587Z,11.30
2019-04-27T00:19:27.246Z,11.00
2019-04-27T00:21:05.818Z,10.90
2019-04-27T00:22:40.949Z,10.40
2019-04-27T00:23:57.005Z,10.20
2019-04-27T00:25:13.166Z,10.20
2019-04-27T00:26:28.898Z,10.00
2019-04-27T00:27:44.922Z,9.70
2019-04-27T00:29:00.775Z,9.80
2019-04-27T00:30:17.719Z,9.50
2019-04-27T00:31:33.805Z,9.30
2019-04-27T00:32:49.536Z,9.20
2019-04-27T00:34:05.448Z,9.40
2019-04-27T00:35:27.224Z,9.80
2019-04-27T00:38:33.380Z,10.30
2019-04-27T00:41:38.223Z,12.50
2019-04-27T00:42:54.464Z,13.60
2019-04-27T00:44:10.382Z,13.90
2019-04-27T00:45:26.167Z,13.80
2019-04-27T00:46:43.131Z,13.70
2019-04-27T00:47:59.791Z,13.90
2019-04-27T00:49:15.988Z,13.60
2019-04-27T00:50:33.656Z,13.10
2019-04-27T00:51:50.076Z,12.30
2019-04-27T00:53:06.280Z,11.70
2019-04-27T00:54:23.358Z,11.10
2019-04-27T00:57:29.091Z,10.20
2019-04-27T00:59:06.894Z,9.70
2019-04-27T01:00:41.556Z,9.40
2019-04-27T01:02:16.571Z,9.50
2019-04-27T01:03:37.086Z,9.20
2019-04-27T01:04:53.096Z,9.10
2019-04-27T01:06:09.342Z,8.80
2019-04-27T01:07:25.494Z,8.60
2019-04-27T01:08:42.784Z,8.50
2019-04-27T01:09:59.596Z,8.50
2019-04-27T01:11:15.730Z,8.30
2019-04-27T01:12:33.375Z,8.20
2019-04-27T01:13:49.800Z,8.00
2019-04-27T01:15:05.726Z,8.10
2019-04-27T01:16:23.754Z,8.70
2019-04-27T01:17:39.881Z,8.80
2019-04-27T01:18:56.869Z,8.90
2019-04-27T01:20:12.740Z,9.20
2019-04-27T01:21:29.559Z,9.60
2019-04-27T01:22:45.939Z,9.60
2019-04-27T01:24:01.950Z,9.30
2019-04-27T01:25:18.821Z,9.30
2019-04-27T01:29:44.416Z,9.10
2019-04-27T01:31:05.177Z,8.90
2019-04-27T01:32:21.597Z,8.80
2019-04-27T01:33:38.913Z,9.40
2019-04-27T01:34:55.097Z,9.10
2019-04-27T01:36:11.234Z,9.20
2019-04-27T01:37:28.515Z,9.20
2019-04-27T01:38:44.352Z,9.10
2019-04-27T01:40:00.656Z,9.10
2019-04-27T01:41:19.088Z,9.00
2019-04-27T01:42:34.718Z,8.90
2019-04-27T01:43:50.861Z,8.70
2019-04-27T01:45:08.568Z,8.50
2019-04-27T01:46:25.037Z,8.80
2019-04-27T01:47:41.297Z,9.60
2019-04-27T01:48:58.956Z,10.00
2019-04-27T01:50:15.189Z,10.70
2019-04-27T01:51:31.130Z,11.30
2019-04-27T01:52:48.670Z,11.40
2019-04-27T01:54:07.123Z,12.00
2019-04-27T01:55:23.289Z,12.10
2019-04-27T01:56:39.596Z,12.30
2019-04-27T01:57:55.666Z,12.30
2019-04-27T01:59:11.640Z,12.30
2019-04-27T02:00:29.902Z,13.10
2019-04-27T02:02:05.197Z,12.90
2019-04-27T02:03:26.113Z,12.40
2019-04-27T02:05:03.547Z,11.90
2019-04-27T02:06:20.908Z,11.90
2019-04-27T02:07:36.719Z,11.60
2019-04-27T02:08:52.813Z,12.20
2019-04-27T02:10:09.039Z,12.30
2019-04-27T02:11:24.811Z,11.70
2019-04-27T02:12:43.757Z,11.20
2019-04-27T02:13:59.511Z,11.40
2019-04-27T02:15:15.790Z,11.20
2019-04-27T02:16:31.429Z,10.70
2019-04-27T02:17:48.983Z,10.50
2019-04-27T02:19:05.418Z,10.30
2019-04-27T02:20:21.280Z,10.50
2019-04-27T02:21:39.099Z,10.40
2019-04-27T02:22:54.944Z,10.10
2019-04-27T02:24:11.245Z,9.80
2019-04-27T02:25:27.039Z,9.40
2019-04-27T02:26:43.061Z,9.20
2019-04-27T02:28:04.585Z,9.10
2019-04-27T02:29:39.969Z,8.90
2019-04-27T02:31:14.938Z,8.90
2019-04-27T02:34:19.899Z,8.30
2019-04-27T02:35:36.086Z,8.60
2019-04-27T02:36:52.277Z,9.50
2019-04-27T02:38:10.092Z,9.30
2019-04-27T02:39:26.419Z,10.00
2019-04-27T02:40:42.613Z,9.90
2019-04-27T02:42:00.266Z,10.10
2019-04-27T02:43:19.253Z,10.90
2019-04-27T02:44:40.498Z,11.30
2019-04-27T02:45:57.180Z,11.40
2019-04-27T02:47:13.170Z,11.60
2019-04-27T02:48:29.879Z,11.70
2019-04-27T02:49:46.456Z,11.30
2019-04-27T02:51:05.043Z,11.20
2019-04-27T02:54:04.525Z,10.50
2019-04-27T02:55:20.613Z,10.50
2019-04-27T02:56:36.709Z,10.10
2019-04-27T02:57:41.069Z,10.20
2019-04-27T02:59:04.546Z,10.00
2019-04-27T03:00:42.238Z,9.60
2019-04-27T03:02:12.040Z,9.30
2019-04-27T03:07:11.470Z,8.20
2019-04-27T03:13:20.096Z,7.80
2019-04-27T03:14:55.117Z,7.70
2019-04-27T03:16:29.818Z,7.60
2019-04-27T03:18:09.739Z,8.30
2019-04-27T03:21:06.337Z,8.20
2019-04-27T03:24:09.837Z,9.40
2019-04-27T03:25:44.379Z,9.30
2019-04-27T03:27:01.637Z,9.00
2019-04-27T03:28:20.046Z,8.90
2019-04-27T03:29:35.865Z,8.60
2019-04-27T03:30:52.812Z,8.70
2019-04-27T03:32:12.629Z,8.40
2019-04-27T03:33:27.282Z,8.60
2019-04-27T03:34:43.498Z,8.60
2019-04-27T03:36:02.663Z,8.60
2019-04-27T03:37:17.379Z,8.80
2019-04-27T03:38:33.263Z,8.70
2019-04-27T03:39:49.904Z,8.40
2019-04-27T03:41:06.268Z,8.70
2019-04-27T03:42:22.195Z,9.20
2019-04-27T03:43:40.309Z,9.30
2019-04-27T03:44:55.893Z,9.60
2019-04-27T03:46:12.452Z,10.50
2019-04-27T03:47:30.599Z,10.10
2019-04-27T03:48:46.160Z,9.80
2019-04-27T03:50:02.306Z,9.40
2019-04-27T03:53:10.438Z,8.90
2019-04-27T03:54:51.670Z,9.10
2019-04-27T03:59:56.566Z,8.60
2019-04-27T04:01:12.852Z,8.50
2019-04-27T04:02:30.260Z,8.60
2019-04-27T04:03:49.681Z,8.40
2019-04-27T04:05:04.830Z,8.30
2019-04-27T04:06:20.967Z,8.40
2019-04-27T04:07:36.940Z,8.70
2019-04-27T04:08:55.139Z,8.90
2019-04-27T04:10:11.004Z,9.50
2019-04-27T04:14:49.312Z,9.60
2019-04-27T04:17:49.610Z,9.10
2019-04-27T04:19:09.789Z,9.90
2019-04-27T04:20:25.214Z,10.00
2019-04-27T04:21:41.447Z,9.90
2019-04-27T04:23:00.205Z,9.90
2019-04-27T04:24:15.436Z,10.20
2019-04-27T04:25:33.074Z,10.20
2019-04-27T04:26:50.306Z,9.80
2019-04-27T04:28:07.161Z,9.70
2019-04-27T04:29:24.538Z,9.90
2019-04-27T04:30:40.854Z,9.60
2019-04-27T04:31:56.929Z,9.70
2019-04-27T04:33:13.032Z,9.80
2019-04-27T04:34:29.964Z,10.10
2019-04-27T04:35:46.196Z,10.40
2019-04-27T04:37:02.655Z,10.90
2019-04-27T04:38:20.585Z,11.10
2019-04-27T04:39:40.017Z,11.20
2019-04-27T04:41:00.488Z,11.30
2019-04-27T04:46:10.691Z,11.20
2019-04-27T04:47:43.476Z,12.20
2019-04-27T04:49:00.288Z,13.00
2019-04-27T04:50:16.221Z,13.40
2019-04-27T04:51:32.402Z,13.90
2019-04-27T04:52:50.002Z,14.30
2019-04-27T04:54:06.306Z,14.70
2019-04-27T04:55:22.562Z,14.90
2019-04-27T04:56:39.311Z,15.30
2019-04-27T04:57:55.816Z,15.70
2019-04-27T04:59:12.118Z,15.70
2019-04-27T05:00:29.818Z,16.20
2019-04-27T05:01:45.856Z,16.40
2019-04-27T05:03:01.861Z,16.60
2019-04-27T05:04:19.370Z,16.80
2019-04-27T05:05:34.098Z,17.10
2019-04-27T05:08:41.564Z,17.90
2019-04-27T05:11:48.689Z,18.80
2019-04-27T05:13:13.180Z,18.40
2019-04-27T05:14:36.646Z,18.40
2019-04-27T05:17:29.710Z,18.90
2019-04-27T05:23:54.642Z,20.70
2019-04-27T05:25:18.559Z,21.00
2019-04-27T05:28:25.696Z,21.10
2019-04-27T05:29:50.489Z,21.40
2019-04-27T05:31:14.432Z,21.60
2019-04-27T05:35:49.828Z,21.70
2019-04-27T05:47:05.360Z,21.70
2019-04-27T05:50:18.300Z,22.50
2019-04-27T05:51:42.075Z,22.50
2019-04-27T05:53:06.347Z,22.30
2019-04-27T05:54:29.719Z,22.40
2019-04-27T05:55:53.219Z,22.70
2019-04-27T05:57:16.695Z,22.60
2019-04-27T06:08:49.693Z,20.90
2019-04-27T06:15:54.491Z,22.60
2019-04-27T06:23:02.635Z,21.40
2019-04-27T06:33:53.120Z,20.70
2019-04-27T06:44:53.102Z,20.90
2019-04-27T06:50:03.793Z,20.80
2019-04-27T07:03:49.971Z,20.10
2019-04-27T07:12:51.797Z,18.10
2019-04-27T07:16:05.806Z,18.30
2019-04-27T07:25:13.513Z,17.70
2019-04-27T07:26:48.817Z,17.80
2019-04-27T07:28:05.475Z,17.80
2019-04-27T07:48:56.545Z,18.10
2019-04-27T07:52:10.126Z,18.00
2019-04-27T07:53:50.705Z,18.00
2019-04-27T07:55:08.592Z,18.10
2019-04-27T07:56:24.502Z,17.70
2019-04-27T08:02:05.744Z,16.10
2019-04-27T08:03:21.838Z,15.70
2019-04-27T08:04:39.923Z,15.50
2019-04-27T08:05:56.057Z,15.30
2019-04-27T08:07:12.383Z,15.00
2019-04-27T08:08:28.655Z,14.90
2019-04-27T08:09:44.752Z,14.70
2019-04-27T08:11:00.309Z,14.50
2019-04-27T08:12:16.340Z,14.20
2019-04-27T08:13:32.329Z,14.20
2019-04-27T08:14:49.108Z,14.30
2019-04-27T08:16:05.425Z,14.00
2019-04-27T08:17:21.771Z,14.00
2019-04-27T08:18:39.506Z,13.90
2019-04-27T08:19:55.295Z,13.80
2019-04-27T08:21:11.879Z,14.10
2019-04-27T08:22:28.924Z,13.90
2019-04-27T08:23:45.280Z,13.60
2019-04-27T08:25:01.467Z,13.40
2019-04-27T08:28:06.008Z,13.70
2019-04-27T08:29:41.325Z,13.40
2019-04-27T08:31:16.445Z,13.40
2019-04-27T08:32:39.423Z,13.20
2019-04-27T08:33:58.288Z,13.30
2019-04-27T08:35:14.738Z,13.50
2019-04-27T08:36:30.458Z,13.40
2019-04-27T08:37:46.196Z,13.20
2019-04-27T08:39:02.592Z,13.20
2019-04-27T08:40:19.281Z,13.40
2019-04-27T08:41:35.931Z,13.50
2019-04-27T08:42:52.158Z,13.40
2019-04-27T08:44:09.785Z,13.60
2019-04-27T08:45:26.277Z,13.50
2019-04-27T08:46:42.380Z,13.50
2019-04-27T08:47:59.467Z,13.40
2019-04-27T08:49:15.586Z,13.50
2019-04-27T08:50:32.214Z,13.40
2019-04-27T08:51:57.140Z,13.40
2019-04-27T08:53:06.910Z,13.50
2019-04-27T08:54:22.674Z,13.60
2019-04-27T08:55:39.517Z,13.40
2019-04-27T08:56:55.529Z,13.20
2019-04-27T08:58:13.059Z,13.20
2019-04-27T08:59:29.707Z,13.10
2019-04-27T09:00:45.811Z,13.00
2019-04-27T09:02:01.928Z,13.00
2019-04-27T09:03:19.326Z,12.90
2019-04-27T09:04:35.894Z,12.90
2019-04-27T09:05:52.105Z,12.90
2019-04-27T09:07:29.382Z,12.80
2019-04-27T09:08:50.521Z,12.80
2019-04-27T09:10:11.885Z,12.80
2019-04-27T09:13:19.508Z,12.70
2019-04-27T09:14:41.326Z,12.50
2019-04-27T09:17:48.848Z,12.50
2019-04-27T09:19:11.134Z,12.70
2019-04-27T09:20:36.226Z,12.70
2019-04-27T09:22:15.866Z,12.70
2019-04-27T09:23:28.952Z,12.70
2019-04-27T09:24:44.964Z,12.90
2019-04-27T09:26:03.452Z,13.00
2019-04-27T09:27:19.869Z,13.00
2019-04-27T09:28:36.331Z,13.10
2019-04-27T09:29:52.361Z,13.20
2019-04-27T09:31:09.194Z,13.40
2019-04-27T09:32:25.379Z,13.60
2019-04-27T09:33:41.235Z,13.70
2019-04-27T09:34:57.418Z,13.90
2019-04-27T09:36:13.861Z,14.00
2019-04-27T09:37:29.719Z,14.20
2019-04-27T09:38:46.526Z,14.20
2019-04-27T09:40:02.806Z,14.30
2019-04-27T09:41:18.477Z,14.20
2019-04-27T09:42:36.277Z,14.30
2019-04-27T09:43:51.822Z,14.20
2019-04-27T09:45:08.362Z,14.10
2019-04-27T09:46:25.939Z,14.00
2019-04-27T09:47:42.370Z,14.10
2019-04-27T09:48:58.273Z,14.10
2019-04-27T09:50:14.172Z,14.10
2019-04-27T09:51:30.050Z,14.20
2019-04-27T09:52:46.012Z,14.20
2019-04-27T09:54:01.866Z,14.30
2019-04-27T09:55:18.037Z,14.30
2019-04-27T09:56:34.055Z,14.20
2019-04-27T09:57:49.880Z,14.20
2019-04-27T09:59:06.400Z,14.20
2019-04-27T10:01:42.654Z,14.00
2019-04-27T10:02:58.915Z,13.90
2019-04-27T10:04:15.677Z,14.00
2019-04-27T10:05:32.945Z,13.90
2019-04-27T10:06:48.973Z,13.70
2019-04-27T10:08:06.221Z,13.60
2019-04-27T10:09:22.111Z,13.50
2019-04-27T10:10:38.085Z,13.40
2019-04-27T10:11:54.012Z,13.30
2019-04-27T10:13:10.044Z,13.20
2019-04-27T10:14:26.591Z,13.00
2019-04-27T10:15:42.729Z,13.10
2019-04-27T10:16:58.763Z,13.10
2019-04-27T10:18:16.216Z,13.00
2019-04-27T10:19:33.275Z,13.10
2019-04-27T10:20:59.138Z,13.00
2019-04-27T10:22:07.263Z,13.10
2019-04-27T10:23:23.467Z,13.20
2019-04-27T10:24:39.624Z,13.30
2019-04-27T10:25:55.817Z,13.40
2019-04-27T10:27:11.881Z,13.40
2019-04-27T10:28:27.588Z,13.30
2019-04-27T10:29:43.924Z,13.40
2019-04-27T10:30:59.809Z,13.50
2019-04-27T10:32:16.232Z,13.50
2019-04-27T10:33:33.063Z,13.50
2019-04-27T10:34:48.936Z,13.50
2019-04-27T10:36:06.328Z,13.60
2019-04-27T10:37:22.675Z,13.70
2019-04-27T10:38:38.675Z,13.80
2019-04-27T10:39:56.032Z,13.90
2019-04-27T10:41:12.778Z,14.00
2019-04-27T10:42:28.636Z,14.20
2019-04-27T10:43:46.525Z,14.30
2019-04-27T10:45:02.841Z,14.20
2019-04-27T10:46:18.740Z,14.20
2019-04-27T10:47:35.990Z,14.20
2019-04-27T10:48:52.578Z,14.30
2019-04-27T10:50:08.444Z,14.50
2019-04-27T10:51:26.140Z,14.60
2019-04-27T10:52:52.860Z,14.70
2019-04-27T10:54:00.682Z,14.90
2019-04-27T10:55:16.831Z,14.90
2019-04-27T10:56:32.815Z,14.90
2019-04-27T10:57:48.744Z,14.80
2019-04-27T10:59:06.230Z,14.70
2019-04-27T11:00:28.192Z,14.70
2019-04-27T11:01:45.924Z,14.70
2019-04-27T11:03:02.712Z,14.60
2019-04-27T11:06:33.439Z,14.40
2019-04-27T11:07:49.450Z,14.20
2019-04-27T11:09:06.002Z,14.10
2019-04-27T11:10:22.378Z,14.00
2019-04-27T11:11:40.022Z,13.90
2019-04-27T11:12:56.305Z,13.90
2019-04-27T11:14:12.424Z,13.80
2019-04-27T11:15:28.203Z,13.70
2019-04-27T11:16:45.960Z,13.80
2019-04-27T11:18:02.183Z,13.60
2019-04-27T11:19:18.250Z,13.50
2019-04-27T11:20:36.303Z,13.50
2019-04-27T11:21:53.014Z,13.40
2019-04-27T11:23:12.087Z,13.20
2019-04-27T11:24:26.540Z,12.90
2019-04-27T11:25:42.722Z,12.60
2019-04-27T11:26:58.705Z,12.30
2019-04-27T11:28:15.643Z,12.30
2019-04-27T11:29:31.399Z,12.10
2019-04-27T11:30:47.317Z,12.00
2019-04-27T11:32:03.479Z,11.90
2019-04-27T11:33:19.337Z,12.00
2019-04-27T11:34:55.707Z,12.00
2019-04-27T11:36:36.881Z,12.10
2019-04-27T11:37:55.588Z,12.10
2019-04-27T11:39:12.240Z,12.10
2019-04-27T11:40:28.404Z,12.10
2019-04-27T11:41:44.469Z,12.10
2019-04-27T11:43:00.844Z,12.20
2019-04-27T11:44:17.099Z,12.20
2019-04-27T11:45:33.762Z,12.30
2019-04-27T11:46:49.601Z,12.20
2019-04-27T11:48:07.514Z,12.20
2019-04-27T11:49:25.682Z,12.20
2019-04-27T11:50:42.405Z,12.20
2019-04-27T11:51:58.800Z,12.20
2019-04-27T11:53:22.328Z,12.20
2019-04-27T11:54:33.134Z,12.10
2019-04-27T11:55:49.033Z,12.20
2019-04-27T11:57:05.241Z,12.10
2019-04-27T11:58:21.011Z,12.10
2019-04-27T11:59:36.707Z,12.10
2019-04-27T12:00:52.717Z,12.00
2019-04-27T12:02:09.026Z,12.00
2019-04-27T12:03:25.046Z,11.90
2019-04-27T12:04:41.094Z,12.00
2019-04-27T12:06:00.026Z,11.90
2019-04-27T12:07:15.194Z,11.90
2019-04-27T12:08:31.130Z,11.70
2019-04-27T12:09:48.087Z,11.40
2019-04-27T12:11:05.911Z,11.20
2019-04-27T12:12:22.459Z,11.00
2019-04-27T12:13:38.243Z,10.80
2019-04-27T12:14:55.918Z,10.70
2019-04-27T12:16:12.447Z,10.90
2019-04-27T12:17:29.273Z,10.90
2019-04-27T12:18:48.858Z,11.10
2019-04-27T12:20:03.195Z,11.30
2019-04-27T12:21:19.450Z,11.60
2019-04-27T12:22:35.329Z,11.80
2019-04-27T12:23:51.667Z,12.10
2019-04-27T12:25:07.985Z,12.20
2019-04-27T12:26:49.280Z,12.50
2019-04-27T12:30:12.446Z,12.70
2019-04-27T12:31:49.049Z,12.80
2019-04-27T12:33:05.007Z,12.90
2019-04-27T12:34:30.081Z,12.70
2019-04-27T12:35:53.565Z,12.70
2019-04-27T12:37:17.086Z,12.70
2019-04-27T12:40:24.175Z,12.70
2019-04-27T12:41:35.392Z,12.70
2019-04-27T12:43:00.325Z,12.80
2019-04-27T12:44:23.760Z,13.10
2019-04-27T12:45:47.563Z,13.30
2019-04-27T12:47:26.265Z,13.50
2019-04-27T12:48:38.827Z,13.60
2019-04-27T12:50:02.291Z,13.70
2019-04-27T12:51:25.867Z,13.80
2019-04-27T12:54:53.352Z,14.00
2019-04-27T12:59:40.980Z,14.10
2019-04-27T13:00:57.180Z,14.10
2019-04-27T13:02:13.868Z,14.20
2019-04-27T13:04:47.407Z,14.40
2019-04-27T13:06:03.564Z,14.60
2019-04-27T13:09:26.909Z,14.30
2019-04-27T13:10:39.488Z,14.30
2019-04-27T13:12:03.326Z,14.30
2019-04-27T13:13:26.930Z,14.20
2019-04-27T13:14:50.374Z,14.20
2019-04-27T13:16:16.947Z,14.10
2019-04-27T13:19:51.191Z,13.50
2019-04-27T13:21:15.729Z,13.30
2019-04-27T13:22:40.347Z,13.10
2019-04-27T13:24:06.308Z,13.00
2019-04-27T13:25:29.141Z,12.80
2019-04-27T13:26:52.928Z,12.90
2019-04-27T13:28:16.380Z,13.00
2019-04-27T13:29:39.982Z,12.90
2019-04-27T13:32:34.124Z,13.00
2019-04-27T13:33:57.735Z,12.90
2019-04-27T13:35:21.161Z,12.90
2019-04-27T13:36:45.675Z,13.00
2019-04-27T13:38:12.583Z,13.10
2019-04-27T13:39:28.261Z,13.20
2019-04-27T13:40:45.811Z,13.40
2019-04-27T13:42:02.181Z,13.40
2019-04-27T13:45:06.008Z,13.70
2019-04-27T13:46:40.469Z,13.70
2019-04-27T13:48:15.655Z,13.60
2019-04-27T13:49:50.572Z,13.50
2019-04-27T13:51:09.141Z,13.40
2019-04-27T13:52:29.844Z,13.40
2019-04-27T13:53:45.604Z,13.50
2019-04-27T13:55:01.694Z,13.60
2019-04-27T13:56:17.702Z,13.70
2019-04-27T13:57:33.926Z,13.80
2019-04-27T13:58:49.755Z,13.90
2019-04-27T14:00:05.577Z,13.80
2019-04-27T14:01:21.440Z,13.90
2019-04-27T14:02:37.803Z,14.00
2019-04-27T14:03:53.806Z,13.90
2019-04-27T14:05:11.823Z,13.70
2019-04-27T14:06:28.083Z,13.70
2019-04-27T14:07:44.261Z,13.70
2019-04-27T14:09:00.133Z,13.80
2019-04-27T14:10:17.935Z,13.90
2019-04-27T14:11:35.169Z,13.90
2019-04-27T14:12:51.615Z,14.00
2019-04-27T14:14:08.291Z,13.90
2019-04-27T14:15:24.089Z,13.90
2019-04-27T14:16:40.124Z,14.10
2019-04-27T14:17:55.960Z,14.20
2019-04-27T14:19:12.594Z,14.10
2019-04-27T14:20:28.777Z,13.90
2019-04-27T14:21:45.083Z,13.80
2019-04-27T14:23:19.986Z,13.70
2019-04-27T14:24:40.769Z,13.60
2019-04-27T14:25:58.579Z,13.70
2019-04-27T14:27:15.923Z,13.70
2019-04-27T14:28:32.443Z,13.70
2019-04-27T14:29:36.973Z,13.80
2019-04-27T14:31:00.535Z,13.80
2019-04-27T14:32:24.052Z,13.80
2019-04-27T14:33:48.395Z,13.90
2019-04-27T14:35:13.047Z,13.90
2019-04-27T14:36:38.061Z,13.90
2019-04-27T14:38:02.054Z,13.70
2019-04-27T14:39:46.548Z,13.70
2019-04-27T14:41:12.651Z,13.60
2019-04-27T14:42:36.284Z,13.80
2019-04-27T14:44:08.025Z,14.00
2019-04-27T14:45:28.622Z,14.20
2019-04-27T14:46:52.353Z,14.30
2019-04-27T14:48:16.035Z,14.30
2019-04-27T14:49:39.578Z,14.20
2019-04-27T14:51:03.173Z,14.00
2019-04-27T14:52:26.723Z,14.00
2019-04-27T14:53:50.278Z,13.90
2019-04-27T14:55:14.000Z,13.90
2019-04-27T14:56:39.156Z,14.00
2019-04-27T14:58:02.648Z,14.00
2019-04-27T14:59:26.136Z,14.10
2019-04-27T15:00:41.802Z,14.20
2019-04-27T15:01:59.940Z,14.20
2019-04-27T15:03:16.239Z,14.10
2019-04-27T15:04:33.665Z,14.20
2019-04-27T15:05:53.849Z,14.30
2019-04-27T15:07:13.810Z,14.40
2019-04-27T15:08:30.234Z,14.30
2019-04-27T15:09:49.571Z,14.10
2019-04-27T15:11:10.198Z,14.00
2019-04-27T15:12:25.688Z,14.00
2019-04-27T15:13:43.032Z,13.90
2019-04-27T15:14:59.082Z,13.90
2019-04-27T15:16:15.924Z,14.00
2019-04-27T15:17:31.543Z,14.00
2019-04-27T15:18:52.437Z,14.20
2019-04-27T15:20:13.270Z,14.20
2019-04-27T15:21:32.632Z,14.30
2019-04-27T15:22:52.533Z,14.20
2019-04-27T15:24:09.995Z,14.00
2019-04-27T15:25:24.750Z,13.90
2019-04-27T15:26:41.000Z,13.90
2019-04-27T15:28:01.427Z,13.80
2019-04-27T15:29:20.575Z,13.70
2019-04-27T15:30:59.810Z,13.60
2019-04-27T15:34:18.979Z,13.50
2019-04-27T15:35:44.010Z,13.60
2019-04-27T15:40:43.959Z,13.10
2019-04-27T15:43:38.522Z,12.90
2019-04-27T15:45:01.560Z,12.80
2019-04-27T15:46:29.381Z,12.70
2019-04-27T15:48:09.098Z,12.60
2019-04-27T15:49:32.610Z,12.20
2019-04-27T15:51:00.970Z,11.70
2019-04-27T15:52:21.290Z,11.30
2019-04-27T15:53:45.977Z,11.00
2019-04-27T15:56:39.560Z,10.40
2019-04-27T15:58:03.148Z,10.10
2019-04-27T15:59:31.004Z,9.90
2019-04-27T16:00:56.576Z,9.70
2019-04-27T16:02:30.753Z,9.50
2019-04-27T16:03:44.223Z,9.40
2019-04-27T16:05:08.188Z,9.30
2019-04-27T16:06:33.116Z,9.20
2019-04-27T16:07:59.267Z,8.90
2019-04-27T16:11:09.976Z,8.70
2019-04-27T16:12:31.385Z,8.60
2019-04-27T16:13:54.800Z,8.60
2019-04-27T16:15:38.859Z,8.50
2019-04-27T16:17:02.944Z,8.40
2019-04-27T16:18:31.121Z,8.40
2019-04-27T16:19:52.854Z,8.40
2019-04-27T16:21:10.813Z,8.30
2019-04-27T16:22:27.681Z,8.30
2019-04-27T16:23:43.657Z,8.30
2019-04-27T16:27:38.468Z,8.50
2019-04-27T16:28:54.880Z,8.60
2019-04-27T16:30:17.921Z,8.70
2019-04-27T16:31:32.057Z,8.80
2019-04-27T16:32:48.061Z,8.90
2019-04-27T16:34:05.888Z,8.90
2019-04-27T16:35:23.165Z,8.90
2019-04-27T16:36:43.670Z,9.00
2019-04-27T16:38:15.923Z,9.00
2019-04-27T16:39:32.189Z,9.00
2019-04-27T16:40:48.261Z,9.00
2019-04-27T16:42:09.686Z,9.00
2019-04-27T16:43:23.838Z,9.10
2019-04-27T16:44:44.080Z,9.20
2019-04-27T16:46:04.359Z,9.20
2019-04-27T16:47:18.843Z,9.20
2019-04-27T16:48:35.137Z,9.30
2019-04-27T16:49:52.522Z,9.30
2019-04-27T16:51:10.684Z,9.30
2019-04-27T16:52:29.295Z,9.40
2019-04-27T16:53:44.715Z,9.40
2019-04-27T16:55:00.798Z,9.40
2019-04-27T16:56:20.451Z,9.50
2019-04-27T16:57:37.383Z,9.50
2019-04-27T16:58:42.129Z,9.50
2019-04-27T17:01:50.428Z,9.60
2019-04-27T17:03:15.434Z,9.70
2019-04-27T17:04:39.059Z,9.70
2019-04-27T17:06:04.029Z,9.80
2019-04-27T17:07:30.161Z,9.80
2019-04-27T17:08:57.328Z,9.90
2019-04-27T17:10:25.573Z,9.90
2019-04-27T17:11:49.516Z,9.90
2019-04-27T17:14:58.126Z,9.80
2019-04-27T17:16:40.464Z,9.80
2019-04-27T17:18:24.300Z,9.80
2019-04-27T17:20:08.534Z,9.90
2019-04-27T17:21:33.503Z,9.90
2019-04-27T17:22:58.291Z,10.00
2019-04-27T17:24:46.142Z,10.00
2019-04-27T17:26:20.551Z,10.00
2019-04-27T17:27:51.123Z,10.00
2019-04-27T17:34:19.007Z,9.80
2019-04-27T17:35:42.766Z,9.80
2019-04-27T17:37:08.269Z,9.90
2019-04-27T17:38:32.907Z,9.80
2019-04-27T17:39:59.447Z,9.80
2019-04-27T17:41:21.757Z,9.80
2019-04-27T17:42:45.714Z,9.90
2019-04-27T17:44:12.720Z,9.80
2019-04-27T17:45:36.351Z,9.80
2019-04-27T17:48:43.746Z,9.90
2019-04-27T17:50:09.277Z,10.00
2019-04-27T17:51:35.285Z,10.00
2019-04-27T17:52:59.053Z,10.00
2019-04-27T17:54:23.345Z,10.10
2019-04-27T17:55:47.004Z,10.20
2019-04-27T17:57:13.512Z,10.20
2019-04-27T17:58:39.742Z,10.20
2019-04-27T18:00:03.287Z,10.20
2019-04-27T18:01:30.178Z,10.00
2019-04-27T18:02:44.415Z,10.20
2019-04-27T18:04:02.999Z,10.20
2019-04-27T18:05:18.696Z,10.20
2019-04-27T18:06:35.168Z,10.20
2019-04-27T18:07:50.936Z,10.20
2019-04-27T18:09:09.567Z,10.20
2019-04-27T18:10:27.793Z,10.10
2019-04-27T18:11:44.316Z,10.10
2019-04-27T18:20:24.657Z,12.50
2019-04-27T18:22:40.889Z,11.50
2019-04-27T18:25:06.223Z,10.80
2019-04-27T18:32:28.708Z,9.60
2019-04-27T18:33:37.200Z,9.60
2019-04-27T18:34:39.374Z,9.50
2019-04-27T18:35:44.086Z,9.40
2019-04-27T18:36:48.552Z,9.30
2019-04-27T18:37:53.710Z,9.10
2019-04-27T18:38:59.710Z,9.00
2019-04-27T18:40:05.096Z,9.00
2019-04-27T18:41:11.744Z,8.90
2019-04-27T18:42:18.006Z,8.90
2019-04-27T18:43:23.011Z,8.90
2019-04-27T18:44:30.501Z,8.90
2019-04-27T18:45:38.030Z,8.90
2019-04-27T18:46:40.121Z,8.90
2019-04-27T18:47:48.064Z,8.80
2019-04-27T18:49:12.294Z,8.80
2019-04-27T18:50:32.136Z,8.80
2019-04-27T18:52:06.562Z,8.90
2019-04-27T18:53:22.927Z,8.90
2019-04-27T18:54:23.979Z,8.80
2019-04-27T18:55:28.980Z,8.80
2019-04-27T18:56:38.602Z,8.80
2019-04-27T18:57:39.651Z,8.80
2019-04-27T18:58:44.353Z,8.70
2019-04-27T18:59:48.902Z,8.70
2019-04-27T19:00:53.594Z,8.60
2019-04-27T19:01:58.402Z,8.50
2019-04-27T19:03:02.839Z,8.50
2019-04-27T19:04:08.688Z,8.40
2019-04-27T19:05:15.338Z,8.40
2019-04-27T19:06:19.908Z,8.40
2019-04-27T19:07:24.507Z,8.40
2019-04-27T19:08:29.178Z,8.40
2019-04-27T19:09:33.793Z,8.40
2019-04-27T19:10:38.431Z,8.40
2019-04-27T19:11:54.129Z,8.40
2019-04-27T19:12:49.281Z,8.40
2019-04-27T19:13:53.762Z,8.40
2019-04-27T19:14:58.987Z,8.50
2019-04-27T19:16:03.544Z,8.50
2019-04-27T19:17:08.051Z,8.60
2019-04-27T19:18:12.993Z,8.60
2019-04-27T19:19:18.913Z,8.60
2019-04-27T19:20:23.504Z,8.60
2019-04-27T19:21:28.842Z,8.60
2019-04-27T19:22:34.733Z,8.60
2019-04-27T19:23:40.224Z,8.50
2019-04-27T19:24:44.922Z,8.50
2019-04-27T19:26:08.764Z,8.40
2019-04-27T19:27:24.473Z,8.40
2019-04-27T19:28:48.318Z,8.40
2019-04-27T19:29:56.125Z,8.30
2019-04-27T19:31:04.154Z,8.30
2019-04-27T19:32:08.737Z,8.30
2019-04-27T19:33:13.859Z,8.20
2019-04-27T19:34:18.561Z,8.20
2019-04-27T19:35:23.138Z,8.10
2019-04-27T19:36:27.968Z,8.10
2019-04-27T19:37:33.931Z,8.10
2019-04-27T19:38:39.209Z,8.10
2019-04-27T19:39:44.722Z,8.00
2019-04-27T19:40:49.325Z,8.00
2019-04-27T19:42:00.322Z,8.00
2019-04-27T19:43:06.972Z,8.00
2019-04-27T19:44:50.275Z,7.90
2019-04-27T19:45:54.919Z,7.90
2019-04-27T19:47:00.354Z,7.90
2019-04-27T19:48:43.295Z,7.90
2019-04-27T19:49:50.327Z,7.90
2019-04-27T19:51:00.185Z,7.90
2019-04-27T19:52:05.567Z,7.90
2019-04-27T19:53:10.565Z,7.90
2019-04-27T19:54:16.144Z,7.90
2019-04-27T19:55:21.873Z,7.90
2019-04-27T19:56:28.347Z,7.90
2019-04-27T19:57:39.211Z,7.90
2019-04-27T19:58:45.394Z,7.80
2019-04-27T19:59:54.650Z,7.80
2019-04-27T20:01:14.753Z,7.90
2019-04-27T20:02:22.699Z,7.80
2019-04-27T20:03:32.476Z,7.90
2019-04-27T20:04:39.392Z,7.90
2019-04-27T20:05:45.228Z,7.80
2019-04-27T20:06:50.804Z,7.80
2019-04-27T20:07:56.165Z,7.80
2019-04-27T20:09:03.859Z,7.80
2019-04-27T20:10:10.839Z,7.80
2019-04-27T20:11:16.418Z,7.70
2019-04-27T20:12:22.405Z,7.70
2019-04-27T20:13:28.033Z,7.70
2019-04-27T20:14:52.530Z,7.70
2019-04-27T20:15:58.182Z,7.70
2019-04-27T20:17:04.289Z,7.70
2019-04-27T20:18:10.814Z,7.70
2019-04-27T20:19:17.705Z,7.70
2019-04-27T20:20:25.662Z,7.70
2019-04-27T20:21:31.207Z,7.70
2019-04-27T20:22:36.142Z,7.70
2019-04-27T20:23:40.964Z,7.70
2019-04-27T20:24:47.162Z,7.70
2019-04-27T20:25:51.725Z,7.70
2019-04-27T20:26:56.329Z,7.70
2019-04-27T20:28:01.180Z,7.70
2019-04-27T20:29:08.087Z,7.80
2019-04-27T20:30:13.684Z,7.80
2019-04-27T20:31:18.563Z,7.80
2019-04-27T20:32:25.797Z,7.90
2019-04-27T20:33:31.191Z,7.90
2019-04-27T20:34:35.967Z,7.90
2019-04-27T20:35:42.514Z,7.90
2019-04-27T20:36:47.486Z,7.90
2019-04-27T20:37:52.091Z,7.80
2019-04-27T20:38:56.996Z,7.70
2019-04-27T20:40:02.531Z,7.70
2019-04-27T20:41:08.373Z,7.70
2019-04-27T20:42:14.681Z,7.60
2019-04-27T20:43:21.363Z,7.60
2019-04-27T20:44:27.186Z,7.60
2019-04-27T20:45:32.809Z,7.50
2019-04-27T20:46:41.336Z,7.50
2019-04-27T20:47:46.689Z,7.50
2019-04-27T20:48:52.174Z,7.50
2019-04-27T20:49:57.667Z,7.50
2019-04-27T20:51:06.471Z,7.40
2019-04-27T20:52:35.217Z,7.40